• Join FlightAware (Why Join?)
  • Login
  • US Flag 
12:10AM EST


 

Airport Tracker/Info


-or-


 

Live Flight TrackerFlight Track Log ✈ N700QA ✈ 06-Apr-2014 ✈ KFLL - KHOU

Flight Track Log - Related Links

Times and Time Zones

All times are in EDT time to prevent confusion due to time zone crossing. See the N700QA flight status page for this flight to view local times or setup timezone preferences in your user account.

Time Position Orientation Groundspeed Altitude Reporting Facility
EDT Latitude Longitude Course Direction KTS MPH feet Rate Location/Type
04:53PM 26.0769 -80.1344 94° East 152 175 600  Level Miami Center
04:53PM 26.0756 -80.1111 94° East 178 205 1,600 2,414 Climbing Miami Center
04:54PM 26.0875 -80.0422 79° East 222 255 4,100 1,672 Climbing Miami Center
04:55PM 26.1542 -80.0508 353° North 278 320 5,000 505 Climbing Miami Center
04:56PM 26.1914 -80.0658 340° North 278 320 4,900  Descending Miami Center
04:57PM 26.2467 -80.1136 322° Northwest 300 345 5,000 500 Climbing Miami Center
04:58PM 26.2636 -80.2022 282° West 258 297 5,900 1,500 Climbing Miami Center
04:59PM 26.2825 -80.2836 285° West 286 329 8,000 1,500 Climbing Miami Center
05:00PM 26.3094 -80.3772 288° West 293 337 8,900 750 Climbing Miami Center
05:01PM 26.3161 -80.4561 275° West 293 337 9,500 900 Climbing Miami Center
05:02PM 26.3031 -80.5600 262° West 306 352 10,700 1,300 Climbing Miami Center
05:03PM 26.3172 -80.6508 280° West 321 369 12,100 1,950 Climbing Miami Center
05:04PM 26.3906 -80.7206 320° Northwest 309 356 14,600 2,400 Climbing Miami Center
05:05PM 26.4500 -80.7711 323° Northwest 309 356 16,900 1,950 Climbing Miami Center
05:06PM 26.5175 -80.8244 325° Northwest 295 339 18,500 1,300 Climbing Miami Center
05:07PM 26.5828 -80.8800 323° Northwest 295 339 19,500 1,150 Climbing Miami Center
05:08PM 26.6517 -80.9544 316° Northwest 306 352 20,800 1,250 Climbing Miami Center
05:09PM 26.7208 -81.0172 321° Northwest 312 359 22,000 1,550 Climbing Miami Center
05:10PM 26.7858 -81.0753 321° Northwest 312 359 23,900 1,700 Climbing Miami Center
05:11PM 26.8408 -81.1239 322° Northwest 291 335 25,400 1,100 Climbing Miami Center
05:12PM 26.9042 -81.1775 323° Northwest 291 335 26,100 850 Climbing Miami Center
05:13PM 26.9731 -81.2453 319° Northwest 291 335 27,100 1,100 Climbing Miami Center
05:14PM 27.0361 -81.2967 324° Northwest 291 335 28,300 950 Climbing Miami Center
05:15PM 27.0992 -81.3525 322° Northwest 285 328 29,000 700 Climbing Miami Center
05:16PM 27.1519 -81.4014 321° Northwest 285 328 29,700 800 Climbing Miami Center
05:17PM 27.2253 -81.4603 324° Northwest 285 328 30,600 800 Climbing Miami Center
05:18PM 27.2644 -81.5342 301° West 279 321 31,300 550 Climbing Miami Center
05:19PM 27.2847 -81.6169 285° West 274 315 31,700 400 Climbing Miami Center
05:20PM 27.3053 -81.6947 287° West 285 328 32,100 500 Climbing Miami Center
05:21PM 27.3275 -81.7797 286° West 285 328 32,700 600 Climbing Miami Center
05:22PM 27.3514 -81.8742 286° West 285 328 33,300 700 Climbing Miami Center
05:23PM 27.3733 -81.9594 286° West 285 328 34,100 700 Climbing Miami Center
05:24PM 27.3933 -82.0444 285° West 285 328 34,700 500 Climbing Miami Center
05:25PM 27.4136 -82.1178 287° West 285 328 35,100 400 Climbing Miami Center
05:26PM 27.4333 -82.2006 285° West 278 320 35,500 450 Climbing Miami Center
05:27PM 27.4553 -82.2883 286° West 278 320 36,000 250 Climbing Miami Center
05:28PM 27.4769 -82.3733 286° West 278 320 36,000  Level Miami Center
05:29PM 27.4989 -82.4586 286° West 284 327 36,000  Level Miami Center
05:30PM 27.5186 -82.5369 286° West 284 327 36,000 50 Level Miami Center
05:31PM 27.5439 -82.6364 286° West 290 334 36,100 50 Climbing Miami Center
05:32PM 27.5672 -82.7289 286° West 301 346 36,100  Level Miami Center
05:33PM 27.5886 -82.8214 285° West 301 346 36,100  Level Miami Center
05:34PM 27.6122 -82.9069 287° West 308 354 36,100  Level Miami Center
05:35PM 27.6331 -83.0017 284° West 308 354 36,100  Level Miami Center
05:36PM 27.6564 -83.0942 286° West 308 354 36,100  Level Miami Center
05:37PM 27.6792 -83.1939 284° West 308 354 36,100  Level Miami Center
05:38PM 27.7042 -83.2867 287° West 314 361 36,100 -50 Level Miami Center
05:39PM 27.7247 -83.3839 283° West 319 367 36,000 -50 Descending Miami Center
05:40PM 27.7514 -83.4839 287° West 324 373 36,000  Level Miami Center
05:41PM 27.7764 -83.5792 287° West 324 373 36,000  Level Miami Center
05:42PM 27.7967 -83.6764 283° West 324 373 36,000  Level Miami Center
05:43PM 27.8192 -83.7764 284° West 324 373 36,000  Level Miami Center
05:44PM 27.8433 -83.8764 285° West 324 373 36,000  Level Miami Center
05:45PM 27.8700 -83.9742 287° West 324 373 36,000  Level Miami Center
05:46PM 27.8919 -84.0742 284° West 324 373 36,000  Level Miami Center
05:47PM 27.9142 -84.1717 284° West 324 373 36,000  Level Miami Center
05:48PM 27.9422 -84.2744 287° West 324 373 36,000  Level Miami Center
05:49PM 27.9622 -84.3744 283° West 324 373 36,000  Level Miami Center
05:51PM 28.0094 -84.5803 285° West 334 384 36,000  Level Jacksonville Center
05:52PM 28.0333 -84.6794 285° West 339 390 36,000  Level Jacksonville Center
05:53PM 28.0608 -84.7928 285° West 339 390 36,000  Level Jacksonville Center
05:54PM 28.0842 -84.8944 285° West 339 390 36,000  Level Jacksonville Center
05:55PM 28.1078 -84.9867 286° West 328 377 36,000  Level Jacksonville Center
05:56PM 28.1292 -85.0858 284° West 333 383 36,000  Level Jacksonville Center
05:57PM 28.1525 -85.1878 285° West 327 376 36,000  Level Jacksonville Center
05:58PM 28.1736 -85.2822 284° West 327 376 36,000  Level Jacksonville Center
05:59PM 28.1989 -85.3867 285° West 327 376 36,000  Level Jacksonville Center
06:00PM 28.2200 -85.4814 284° West 327 376 36,000  Level Jacksonville Center
06:01PM 28.2428 -85.5856 284° West 327 376 36,000 50 Level Jacksonville Center
06:02PM 28.2656 -85.6897 284° West 327 376 36,100  Climbing Jacksonville Center
06:03PM 28.2886 -85.7847 285° West 327 376 36,000  Descending Jacksonville Center
06:04PM 28.3092 -85.8867 283° West 327 376 36,100  Climbing Jacksonville Center
06:05PM 28.3319 -85.9842 285° West 327 376 36,000 -50 Descending Jacksonville Center
06:06PM 28.3564 -86.0886 285° West 332 382 36,000 50 Level Jacksonville Center
06:07PM 28.3769 -86.1836 284° West 332 382 36,100 50 Climbing Jacksonville Center
06:08PM 28.3972 -86.2833 283° West 332 382 36,100  Level Jacksonville Center
06:09PM 28.4217 -86.3903 285° West 337 388 36,100  Level Jacksonville Center
06:10PM 28.4439 -86.4878 285° West 332 382 36,100  Level Jacksonville Center
06:11PM 28.4661 -86.5903 284° West 338 389 36,100  Level Jacksonville Center
06:12PM 28.4861 -86.6878 283° West 330 380 36,100  Level Jacksonville Center
06:13PM 28.5103 -86.7925 285° West 330 380 36,100 -100 Level Jacksonville Center
06:14PM 28.5258 -86.8925 280° West 337 388 35,900  Descending Jacksonville Center
06:15PM 28.5497 -86.9925 285° West 337 388 36,100 100 Climbing Jacksonville Center
06:16PM 28.5758 -87.0953 286° West 337 388 36,100  Level Jacksonville Center
06:17PM 28.5953 -87.1953 283° West 342 394 36,100  Level Jacksonville Center
06:17PM 28.6028 -87.2325 283° West 330 380 36,100  Level Houston Center
06:18PM 28.6244 -87.3317 284° West 326 375 36,100  Level Houston Center
06:19PM 28.6500 -87.4531 284° West 327 376 36,100 -48 Level Houston Center
06:20PM 28.6711 -87.5544 283° West 327 376 36,000  Descending Houston Center
06:21PM 28.6928 -87.6558 284° West 329 379 36,100 48 Climbing Houston Center
06:22PM 28.7142 -87.7564 284° West 328 377 36,100  Level Houston Center
06:24PM 28.7336 -87.8572 282° West 328 377 36,100  Level Houston Center
06:25PM 28.7553 -87.9597 284° West 328 377 36,100  Level Houston Center
06:26PM 28.7800 -88.0814 283° West 329 379 36,100  Level Houston Center
06:27PM 28.7983 -88.1769 282° West 329 379 36,100  Level Houston Center
06:28PM 28.8200 -88.2794 284° West 330 380 36,100  Level Houston Center
06:29PM 28.8436 -88.3975 283° West 330 380 36,100  Level Houston Center
06:30PM 28.8650 -88.5050 283° West 331 381 36,100  Level Houston Center
06:31PM 28.8856 -88.6064 283° West 331 381 36,100  Level Houston Center
06:32PM 28.9064 -88.7089 283° West 331 381 36,100  Level Houston Center
06:33PM 28.9247 -88.8092 282° West 328 377 36,100  Level Houston Center
06:34PM 28.9447 -88.9072 283° West 329 379 36,100  Level Houston Center
06:35PM 28.9661 -89.0142 283° West 329 379 36,100  Level Houston Center
06:36PM 28.9897 -89.1364 282° West 329 379 36,100  Level Houston Center
06:37PM 29.0097 -89.2381 283° West 329 379 36,100  Level Houston Center
06:38PM 29.0292 -89.3417 282° West 329 379 36,100  Level Houston Center
06:39PM 29.0486 -89.4433 282° West 329 379 36,100  Level Houston Center
06:40PM 29.0681 -89.5456 282° West 329 379 36,100  Level Houston Center
06:41PM 29.0889 -89.6486 283° West 332 382 36,100  Level Houston Center
06:42PM 29.1111 -89.7714 282° West 332 382 36,100  Level Houston Center
06:43PM 29.1311 -89.8731 283° West 328 377 36,100  Level Houston Center
06:44PM 29.1497 -89.9728 282° West 327 376 36,100 -48 Level Houston Center
06:45PM 29.1681 -90.0739 282° West 326 375 36,000 -48 Descending Houston Center
06:46PM 29.1822 -90.1733 279° West 321 369 36,000  Level Houston Center
06:47PM 29.1792 -90.2731 268° West 315 362 36,000  Level Houston Center
06:48PM 29.1853 -90.3906 273° West 311 358 36,000  Level Houston Center
06:49PM 29.1886 -90.4908 272° West 312 359 36,000  Level Houston Center
06:50PM 29.1917 -90.5886 272° West 312 359 36,000  Level Houston Center
06:51PM 29.1947 -90.6858 272° West 311 358 36,000  Level Houston Center
06:53PM 29.1989 -90.7853 273° West 311 358 36,000  Level Houston Center
06:54PM 29.2019 -90.8839 272° West 311 358 36,000  Level Houston Center
06:55PM 29.2058 -91.0014 272° West 311 358 36,000  Level Houston Center
06:56PM 29.2083 -91.1000 272° West 311 358 36,000  Level Houston Center
06:57PM 29.2114 -91.1992 272° West 311 358 36,000  Level Houston Center
06:58PM 29.2142 -91.2981 272° West 311 358 36,000  Level Houston Center
06:59PM 29.2169 -91.3964 272° West 311 358 36,000  Level Houston Center
07:00PM 29.2206 -91.4956 272° West 313 360 36,000  Level Houston Center
07:01PM 29.2225 -91.6147 271° West 313 360 36,000  Level Houston Center
07:02PM 29.2264 -91.7144 273° West 313 360 36,000  Level Houston Center
07:03PM 29.2283 -91.8078 271° West 313 360 36,000  Level Houston Center
07:04PM 29.2311 -91.9125 272° West 313 360 36,000  Level Houston Center
07:05PM 29.2339 -92.0253 272° West 313 360 36,000  Level Houston Center
07:06PM 29.2361 -92.1258 271° West 313 360 36,000 -336 Level Houston Center
07:07PM 29.2386 -92.2256 272° West 313 360 35,300 -912 Descending Houston Center
07:08PM 29.2406 -92.3244 271° West 322 371 34,100 -629 Descending Houston Center
07:09PM 29.2428 -92.4494 271° West 327 376 34,000 -48 Descending Houston Center
07:10PM 29.2436 -92.5314 271° West 310 357 34,000 -48 Level Houston Center
07:11PM 29.2456 -92.6433 271° West 297 342 33,900  Descending Houston Center
07:12PM 29.2472 -92.7406 271° West 300 345 34,000 48 Climbing Houston Center
07:13PM 29.2497 -92.8400 272° West 310 357 34,000 -240 Level Houston Center
07:14PM 29.2517 -92.9414 271° West 314 361 33,500 -1,056 Descending Houston Center
07:15PM 29.2533 -93.0408 271° West 312 359 31,800 -1,790 Descending Houston Center
07:16PM 29.2544 -93.1453 271° West 325 374 29,800 -1,839 Descending Houston Center
07:17PM 29.2564 -93.2736 271° West 333 383 28,000 -1,694 Descending Houston Center
07:18PM 29.2581 -93.3831 271° West 339 390 26,300 -1,694 Descending Houston Center
07:19PM 29.2594 -93.4956 271° West 349 402 24,500 -1,597 Descending Houston Center
07:20PM 29.2608 -93.6072 271° West 353 406 23,000 -1,500 Descending Houston Center
07:21PM 29.2611 -93.7158 270° West 347 399 21,400 -1,488 Descending Houston Center
07:23PM 29.2628 -93.8236 271° West 341 392 19,900 -1,536 Descending Houston Center
07:24PM 29.2628 -93.9394 270° West 339 390 18,200 -1,742 Descending Houston Center
07:25PM 29.2639 -94.0456 271° West 338 389 16,300 -1,871 Descending Houston Center
07:25PM 29.2628 -94.1119 269° West 331 381 15,300 -1,839 Descending Houston Center
07:26PM 29.2642 -94.1744 271° West 336 387 14,400 -1,574 Descending Houston Center
07:26PM 29.2639 -94.2267 270° West 340 391 13,700 -1,548 Descending Houston Center
07:27PM 29.2650 -94.2808 271° West 336 387 12,800 -1,433 Descending Houston Center
07:27PM 29.2628 -94.3419 268° West 338 389 12,100 -774 Descending Houston Center
07:28PM 29.2650 -94.3864 273° West 335 386 12,000  Descending Houston Center
07:28PM 29.2639 -94.4594 269° West 336 387 12,100  Climbing Houston Center
07:29PM 29.2733 -94.4950 287° West 339 390 12,000 -393 Descending Houston Center
07:29PM 29.3014 -94.5600 296° West 353 406 11,700 -774 Descending Houston Center
07:30PM 29.3186 -94.5908 303° West 342 394 11,200 -1,180 Descending Houston Center
07:30PM 29.3433 -94.6458 297° West 293 337 10,500 -1,065 Descending Houston Center
07:31PM 29.3583 -94.6731 302° West 297 342 10,100 -1,065 Descending Houston Center
07:31PM 29.3708 -94.7333 283° West 265 305 9,400 -1,355 Descending Houston Center
07:32PM 29.3714 -94.7706 271° West 261 300 8,700 -1,279 Descending Houston Center
07:32PM 29.3803 -94.8114 284° West 244 281 8,100 -1,143 Descending Houston Center
07:33PM 29.3917 -94.8464 290° West 252 290 7,500 -1,082 Descending Houston Center
07:33PM 29.4019 -94.8831 288° West 241 277 7,000 -1,065 Descending Houston Center
07:34PM 29.4117 -94.9200 287° West 245 282 6,400 -1,393 Descending Houston Center
07:34PM 29.4192 -94.9553 284° West 245 282 5,700 -968 Descending Houston Center
07:35PM 29.4314 -94.9978 288° West 249 287 5,400 -492 Descending Houston Center
07:35PM 29.4408 -95.0269 290° West 246 283 5,200 -581 Descending Houston Center
07:36PM 29.4633 -95.0647 304° West 260 299 4,800 -787 Descending Houston Center
07:36PM 29.4869 -95.0933 313° West 253 291 4,400 -1,161 Descending Houston Center
07:37PM 29.5122 -95.1214 316° Northwest 254 292 3,600 -1,475 Descending Houston Center
07:37PM 29.5342 -95.1478 314° West 243 280 2,900 -1,065 Descending Houston Center
07:38PM 29.5528 -95.1678 317° Northwest 220 253 2,500 -787 Descending Houston Center
07:38PM 29.5672 -95.1869 311° West 153 176 2,100 -871 Descending Houston Center
07:39PM 29.5847 -95.2050 318° Northwest 185 213 1,600 -885 Descending Houston Center
07:39PM 29.5978 -95.2217 312° West 148 170 1,200 -871 Descending Houston Center
07:40PM 29.6169 -95.2439 315° West 154 177 700 -689 Descending Houston Center
07:40PM 29.6239 -95.2544 307° West 121 139 500 -581 Descending Houston Center
07:41PM 29.6353 -95.2667 317° Northwest 139 160 100 -533 Descending Houston Center
07:43PM 29.6333 -95.2667 115° Southeast  Level FlightAware Approximate